createdAt,value
2023-05-15T00:00:48.372Z,16.78
2023-05-15T00:01:48.368Z,16.74
2023-05-15T00:02:48.445Z,16.79
2023-05-15T00:03:48.460Z,16.71
2023-05-15T00:04:48.449Z,16.66
2023-05-15T00:05:48.441Z,16.60
2023-05-15T00:06:48.483Z,16.63
2023-05-15T00:07:48.540Z,16.66
2023-05-15T00:08:48.563Z,16.68
2023-05-15T00:09:48.654Z,16.68
2023-05-15T00:11:00.878Z,16.72
2023-05-15T00:11:49.683Z,16.51
2023-05-15T00:12:48.623Z,16.50
2023-05-15T00:13:48.635Z,16.54
2023-05-15T00:14:48.625Z,16.57
2023-05-15T00:15:48.611Z,16.57
2023-05-15T00:16:48.629Z,16.49
2023-05-15T00:17:48.644Z,16.49
2023-05-15T00:18:48.633Z,16.57
2023-05-15T00:19:48.594Z,16.58
2023-05-15T00:20:48.581Z,16.58
2023-05-15T00:21:48.592Z,16.41
2023-05-15T00:22:48.583Z,16.37
2023-05-15T00:23:48.617Z,16.30
2023-05-15T00:24:48.548Z,16.37
2023-05-15T00:25:48.580Z,16.40
2023-05-15T00:26:48.623Z,16.32
2023-05-15T00:27:48.625Z,16.33
2023-05-15T00:28:48.585Z,16.33
2023-05-15T00:29:48.596Z,16.20
2023-05-15T00:30:48.609Z,16.15
2023-05-15T00:31:48.762Z,16.23
2023-05-15T00:32:48.713Z,16.23
2023-05-15T00:33:48.636Z,16.06
2023-05-15T00:34:48.658Z,15.94
2023-05-15T00:35:48.691Z,16.05
2023-05-15T00:36:48.713Z,16.16
2023-05-15T00:37:48.702Z,16.24
2023-05-15T00:38:48.706Z,16.32
2023-05-15T00:39:48.748Z,16.40
2023-05-15T00:40:48.751Z,16.46
2023-05-15T00:41:48.865Z,16.54
2023-05-15T00:42:48.785Z,16.58
2023-05-15T00:43:48.852Z,16.37
2023-05-15T00:44:48.917Z,16.41
2023-05-15T00:45:48.934Z,16.44
2023-05-15T00:46:49.024Z,16.27
2023-05-15T00:47:49.007Z,16.17
2023-05-15T00:48:49.035Z,16.05
2023-05-15T00:49:49.040Z,16.11
2023-05-15T00:50:49.101Z,16.15
2023-05-15T00:51:49.148Z,16.16
2023-05-15T00:52:49.173Z,16.22
2023-05-15T00:53:49.224Z,16.27
2023-05-15T00:54:49.194Z,16.32
2023-05-15T00:55:49.181Z,16.29
2023-05-15T00:56:49.280Z,16.36
2023-05-15T00:57:49.276Z,16.40
2023-05-15T00:58:49.305Z,16.46
2023-05-15T00:59:49.379Z,16.44
2023-05-15T01:00:49.474Z,16.39
2023-05-15T01:01:49.488Z,16.26
2023-05-15T01:02:49.648Z,16.27
2023-05-15T01:03:49.967Z,16.13
2023-05-15T01:04:49.660Z,15.68
2023-05-15T01:05:49.725Z,15.60
2023-05-15T01:06:49.787Z,15.50
2023-05-15T01:07:49.834Z,15.36
2023-05-15T01:08:49.901Z,15.32
2023-05-15T01:09:50.002Z,15.39
2023-05-15T01:10:50.006Z,15.53
2023-05-15T01:11:50.087Z,15.60
2023-05-15T01:12:50.088Z,15.71
2023-05-15T01:13:50.159Z,15.77
2023-05-15T01:14:50.183Z,15.85
2023-05-15T01:15:50.156Z,15.99
2023-05-15T01:16:50.272Z,16.11
2023-05-15T01:17:50.312Z,16.19
2023-05-15T01:18:50.327Z,16.27
2023-05-15T01:19:50.527Z,16.30
2023-05-15T01:20:50.330Z,16.34
2023-05-15T01:21:50.369Z,16.43
2023-05-15T01:22:50.402Z,16.47
2023-05-15T01:23:50.528Z,16.27
2023-05-15T01:24:50.526Z,16.39
2023-05-15T01:25:50.583Z,16.40
2023-05-15T01:26:50.686Z,16.44
2023-05-15T01:27:50.658Z,16.47
2023-05-15T01:28:50.979Z,16.53
2023-05-15T01:29:50.714Z,16.57
2023-05-15T01:30:50.767Z,16.63
2023-05-15T01:31:50.834Z,16.61
2023-05-15T01:32:50.888Z,16.66
2023-05-15T01:33:50.889Z,16.68
2023-05-15T01:34:50.892Z,16.58
2023-05-15T01:35:50.933Z,16.56
2023-05-15T01:36:50.961Z,16.57
2023-05-15T01:37:51.022Z,16.60
2023-05-15T01:38:51.076Z,16.39
2023-05-15T01:39:51.100Z,16.20
2023-05-15T01:40:51.215Z,16.17
2023-05-15T01:41:51.266Z,16.20
2023-05-15T01:42:51.231Z,16.26
2023-05-15T01:43:51.202Z,16.13
2023-05-15T01:44:51.222Z,16.13
2023-05-15T01:45:51.258Z,16.23
2023-05-15T01:46:51.411Z,16.27
2023-05-15T01:47:51.362Z,16.24
2023-05-15T01:48:51.356Z,16.23
2023-05-15T01:49:51.620Z,16.17
2023-05-15T01:50:51.382Z,16.04
2023-05-15T01:51:51.472Z,16.01
2023-05-15T01:52:51.483Z,15.94
2023-05-15T01:53:51.578Z,15.81
2023-05-15T01:54:51.657Z,15.89
2023-05-15T01:55:51.702Z,15.85
2023-05-15T01:56:51.727Z,15.58
2023-05-15T01:57:51.732Z,15.69
2023-05-15T01:58:51.791Z,15.64
2023-05-15T01:59:51.875Z,15.37
2023-05-15T02:00:51.845Z,15.36
2023-05-15T02:01:51.980Z,15.21
2023-05-15T02:02:52.056Z,15.26
2023-05-15T02:03:52.141Z,15.44
2023-05-15T02:04:52.023Z,15.58
2023-05-15T02:05:52.115Z,15.68
2023-05-15T02:06:52.095Z,15.69
2023-05-15T02:07:52.132Z,15.56
2023-05-15T02:08:52.172Z,15.50
2023-05-15T02:09:52.157Z,15.60
2023-05-15T02:10:52.174Z,15.68
2023-05-15T02:11:52.231Z,15.71
2023-05-15T02:12:52.276Z,15.67
2023-05-15T02:13:52.334Z,15.68
2023-05-15T02:14:52.442Z,15.69
2023-05-15T02:15:52.508Z,15.72
2023-05-15T02:16:52.562Z,15.71
2023-05-15T02:17:52.699Z,15.81
2023-05-15T02:18:52.772Z,15.82
2023-05-15T02:19:52.607Z,15.72
2023-05-15T02:20:52.631Z,15.74
2023-05-15T02:21:52.613Z,15.84
2023-05-15T02:23:00.216Z,15.89
2023-05-15T02:23:52.571Z,15.95
2023-05-15T02:24:52.578Z,16.05
2023-05-15T02:25:52.614Z,16.12
2023-05-15T02:26:52.549Z,16.17
2023-05-15T02:27:52.548Z,16.22
2023-05-15T02:28:52.529Z,15.88
2023-05-15T02:29:52.546Z,15.74
2023-05-15T02:30:52.493Z,15.61
2023-05-15T02:31:52.693Z,15.61
2023-05-15T02:32:52.606Z,15.78
2023-05-15T02:33:52.511Z,15.92
2023-05-15T02:34:52.502Z,15.99
2023-05-15T02:35:52.480Z,16.06
2023-05-15T02:36:52.573Z,16.08
2023-05-15T02:37:52.626Z,16.04
2023-05-15T02:38:52.626Z,15.89
2023-05-15T02:39:52.669Z,15.89
2023-05-15T02:40:52.717Z,15.92
2023-05-15T02:41:52.779Z,15.94
2023-05-15T02:42:52.792Z,16.04
2023-05-15T02:43:52.857Z,15.85
2023-05-15T02:44:52.903Z,15.96
2023-05-15T02:45:53.043Z,16.05
2023-05-15T02:46:52.995Z,16.05
2023-05-15T02:47:53.120Z,16.04
2023-05-15T02:48:53.067Z,16.13
2023-05-15T02:49:53.140Z,16.19
2023-05-15T02:50:53.134Z,16.19
2023-05-15T02:51:53.153Z,16.29
2023-05-15T02:52:53.204Z,16.39
2023-05-15T02:53:53.238Z,16.40
2023-05-15T02:54:53.274Z,16.43
2023-05-15T02:55:53.285Z,16.51
2023-05-15T02:56:53.343Z,16.58
2023-05-15T02:57:53.368Z,16.58
2023-05-15T02:58:53.402Z,16.58
2023-05-15T02:59:53.454Z,16.60
2023-05-15T03:00:53.542Z,16.63
2023-05-15T03:01:53.509Z,16.47
2023-05-15T03:02:53.584Z,16.37
2023-05-15T03:03:53.652Z,16.16
2023-05-15T03:04:54.361Z,16.24
2023-05-15T03:05:53.618Z,16.17
2023-05-15T03:06:53.615Z,16.26
2023-05-15T03:07:53.616Z,16.24
2023-05-15T03:08:53.670Z,16.33
2023-05-15T03:09:53.749Z,16.39
2023-05-15T03:10:53.758Z,16.30
2023-05-15T03:13:13.249Z,16.40
2023-05-15T03:14:13.214Z,16.19
2023-05-15T03:15:13.229Z,16.09
2023-05-15T03:16:13.237Z,15.92
2023-05-15T03:17:13.288Z,15.99
2023-05-15T03:18:13.270Z,15.69
2023-05-15T03:19:13.226Z,15.46
2023-05-15T03:20:13.192Z,15.51
2023-05-15T03:21:13.167Z,15.65
2023-05-15T03:22:13.185Z,15.80
2023-05-15T03:23:13.210Z,15.94
2023-05-15T03:24:13.169Z,16.06
2023-05-15T03:25:13.192Z,16.17
2023-05-15T03:26:13.174Z,16.24
2023-05-15T03:27:13.209Z,16.33
2023-05-15T03:28:13.116Z,16.27
2023-05-15T03:29:13.109Z,16.16
2023-05-15T03:30:13.137Z,15.96
2023-05-15T03:31:13.157Z,15.85
2023-05-15T03:32:13.185Z,15.58
2023-05-15T03:33:13.175Z,15.72
2023-05-15T03:34:13.075Z,15.86
2023-05-15T03:35:13.180Z,15.92
2023-05-15T03:36:13.103Z,15.88
2023-05-15T03:37:13.471Z,16.02
2023-05-15T03:38:13.077Z,16.01
2023-05-15T03:39:13.105Z,16.11
2023-05-15T03:40:13.057Z,16.15
2023-05-15T03:41:13.067Z,16.22
2023-05-15T03:42:13.111Z,16.36
2023-05-15T03:43:13.072Z,16.46
2023-05-15T03:44:12.997Z,16.33
2023-05-15T03:45:13.050Z,16.37
2023-05-15T03:46:13.076Z,16.16
2023-05-15T03:47:13.033Z,16.26
2023-05-15T03:48:13.057Z,16.37
2023-05-15T03:49:12.976Z,16.44
2023-05-15T03:50:12.986Z,16.32
2023-05-15T03:51:13.009Z,16.39
2023-05-15T03:52:13.012Z,16.39
2023-05-15T03:53:12.989Z,16.40
2023-05-15T03:54:12.968Z,16.23
2023-05-15T03:55:12.979Z,15.98
2023-05-15T03:56:13.015Z,15.82
2023-05-15T03:57:13.130Z,15.89
2023-05-15T03:58:13.050Z,15.78
2023-05-15T03:59:13.126Z,15.56
2023-05-15T04:00:13.030Z,15.40
2023-05-15T04:01:13.048Z,15.22
2023-05-15T04:02:13.129Z,15.12
2023-05-15T04:03:13.293Z,15.36
2023-05-15T04:04:13.116Z,15.53
2023-05-15T04:05:13.199Z,15.67
2023-05-15T04:06:13.183Z,15.81
2023-05-15T04:07:13.195Z,15.71
2023-05-15T04:08:13.196Z,15.75
2023-05-15T04:09:13.268Z,15.92
2023-05-15T04:10:13.275Z,16.04
2023-05-15T04:11:13.299Z,16.11
2023-05-15T04:12:13.337Z,16.16
2023-05-15T04:14:32.790Z,16.22
2023-05-15T04:15:32.760Z,16.23
2023-05-15T04:16:32.843Z,16.08
2023-05-15T04:17:32.789Z,16.09
2023-05-15T04:18:32.762Z,16.08
2023-05-15T04:19:32.737Z,16.17
2023-05-15T04:20:32.767Z,16.20
2023-05-15T04:21:32.744Z,15.47
2023-05-15T04:22:32.805Z,15.60
2023-05-15T04:23:32.719Z,15.72
2023-05-15T04:24:33.031Z,15.85
2023-05-15T04:25:32.737Z,15.61
2023-05-15T04:26:32.697Z,15.71
2023-05-15T04:27:32.730Z,15.39
2023-05-15T04:28:32.686Z,15.44
2023-05-15T04:29:32.698Z,15.19
2023-05-15T04:30:32.689Z,15.21
2023-05-15T04:31:32.910Z,15.19
2023-05-15T04:32:32.748Z,15.26
2023-05-15T04:33:32.679Z,15.29
2023-05-15T04:34:32.646Z,15.39
2023-05-15T04:35:32.619Z,15.49
2023-05-15T04:36:32.653Z,15.67
2023-05-15T04:37:32.660Z,15.81
2023-05-15T04:38:32.965Z,15.84
2023-05-15T04:39:32.645Z,15.92
2023-05-15T04:40:32.597Z,15.96
2023-05-15T04:41:32.633Z,16.05
2023-05-15T04:42:32.618Z,16.16
2023-05-15T04:43:32.594Z,16.22
2023-05-15T04:44:32.610Z,16.29
2023-05-15T04:45:32.604Z,16.33
2023-05-15T04:46:32.744Z,16.17
2023-05-15T04:47:32.668Z,16.01
2023-05-15T04:48:32.573Z,15.69
2023-05-15T04:49:32.567Z,15.57
2023-05-15T04:50:32.587Z,15.50
2023-05-15T04:51:32.591Z,15.47
2023-05-15T04:52:32.559Z,15.46
2023-05-15T04:53:32.614Z,15.47
2023-05-15T04:54:32.809Z,15.68
2023-05-15T04:55:33.700Z,15.80
2023-05-15T04:56:32.533Z,15.88
2023-05-15T04:57:32.544Z,15.94
2023-05-15T04:58:32.524Z,16.01
2023-05-15T04:59:32.492Z,16.06
2023-05-15T05:00:32.503Z,15.89
2023-05-15T05:01:32.550Z,16.01
2023-05-15T05:02:32.547Z,16.05
2023-05-15T05:03:32.500Z,15.72
2023-05-15T05:04:32.466Z,15.37
2023-05-15T05:05:32.440Z,15.29
2023-05-15T05:06:32.440Z,15.47
2023-05-15T05:07:32.465Z,15.41
2023-05-15T05:08:32.529Z,15.19
2023-05-15T05:09:32.442Z,15.06
2023-05-15T05:10:32.534Z,14.81
2023-05-15T05:11:32.530Z,15.00
2023-05-15T05:12:32.693Z,15.12
2023-05-15T05:13:32.565Z,15.10
2023-05-15T05:14:32.588Z,15.25
2023-05-15T05:15:32.648Z,15.09
2023-05-15T05:16:32.694Z,15.23
2023-05-15T05:17:32.634Z,15.27
2023-05-15T05:18:32.636Z,15.32
2023-05-15T05:19:32.698Z,15.53
2023-05-15T05:20:32.713Z,15.67
2023-05-15T05:21:32.720Z,15.67
2023-05-15T05:22:32.864Z,15.58
2023-05-15T05:23:32.770Z,15.67
2023-05-15T05:24:32.767Z,15.67
2023-05-15T05:25:32.839Z,15.72
2023-05-15T05:26:32.765Z,15.82
2023-05-15T05:27:32.907Z,15.89
2023-05-15T05:28:32.964Z,15.91
2023-05-15T05:29:32.958Z,15.92
2023-05-15T05:30:33.045Z,15.89
2023-05-15T05:31:33.117Z,15.89
2023-05-15T05:32:33.135Z,15.96
2023-05-15T05:33:33.081Z,15.98
2023-05-15T05:34:33.120Z,15.89
2023-05-15T05:35:33.028Z,15.72
2023-05-15T05:36:33.024Z,15.74
2023-05-15T05:37:33.056Z,15.60
2023-05-15T05:38:33.172Z,15.30
2023-05-15T05:39:32.959Z,15.39
2023-05-15T05:40:33.056Z,15.21
2023-05-15T05:41:33.027Z,15.09
2023-05-15T05:42:33.032Z,15.05
2023-05-15T05:43:32.986Z,15.00
2023-05-15T05:44:32.983Z,15.22
2023-05-15T05:45:32.979Z,15.29
2023-05-15T05:47:54.389Z,15.32
2023-05-15T05:48:54.254Z,15.56
2023-05-15T05:49:54.939Z,15.64
2023-05-15T05:50:54.060Z,15.74
2023-05-15T05:51:54.232Z,15.85
2023-05-15T05:52:53.342Z,15.92
2023-05-15T05:53:53.288Z,15.98
2023-05-15T05:54:53.259Z,16.04
2023-05-15T05:55:53.275Z,16.13
2023-05-15T05:56:53.370Z,16.23
2023-05-15T05:57:53.429Z,16.34
2023-05-15T05:58:53.395Z,16.41
2023-05-15T05:59:53.241Z,16.49
2023-05-15T06:00:53.241Z,16.58
2023-05-15T06:01:54.132Z,16.56
2023-05-15T06:02:53.394Z,16.58
2023-05-15T06:03:53.476Z,16.66
2023-05-15T06:04:53.208Z,16.71
2023-05-15T06:05:53.142Z,16.77
2023-05-15T06:06:53.252Z,16.81
2023-05-15T06:07:54.242Z,16.87
2023-05-15T06:08:55.645Z,16.71
2023-05-15T06:09:53.303Z,16.82
2023-05-15T06:10:53.424Z,16.82
2023-05-15T06:11:53.360Z,16.88
2023-05-15T06:12:53.262Z,16.84
2023-05-15T06:13:54.009Z,16.71
2023-05-15T06:14:53.278Z,16.72
2023-05-15T06:15:53.369Z,16.81
2023-05-15T06:16:53.447Z,16.81
2023-05-15T06:17:53.471Z,16.75
2023-05-15T06:18:54.740Z,16.78
2023-05-15T06:19:53.390Z,16.81
2023-05-15T06:20:53.283Z,16.88
2023-05-15T06:21:54.136Z,16.74
2023-05-15T06:22:54.261Z,16.85
2023-05-15T06:23:54.293Z,16.79
2023-05-15T06:24:54.279Z,16.81
2023-05-15T06:25:53.348Z,16.74
2023-05-15T06:26:53.417Z,16.78
2023-05-15T06:27:53.384Z,16.74
2023-05-15T06:28:53.371Z,16.70
2023-05-15T06:29:53.312Z,16.78
2023-05-15T06:30:53.368Z,16.68
2023-05-15T06:31:53.325Z,16.46
2023-05-15T06:32:54.179Z,16.33
2023-05-15T06:33:53.325Z,15.77
2023-05-15T06:34:54.262Z,15.46
2023-05-15T06:35:53.339Z,15.47
2023-05-15T06:36:53.655Z,15.50
2023-05-15T06:37:53.271Z,15.47
2023-05-15T06:38:53.330Z,15.71
2023-05-15T06:39:54.089Z,15.80
2023-05-15T06:40:53.268Z,15.95
2023-05-15T06:41:53.356Z,16.09
2023-05-15T06:42:53.377Z,16.19
2023-05-15T06:43:54.707Z,16.09
2023-05-15T06:44:53.513Z,16.11
2023-05-15T06:45:53.427Z,16.27
2023-05-15T06:46:53.552Z,16.39
2023-05-15T06:47:53.572Z,16.39
2023-05-15T06:48:53.857Z,16.54
2023-05-15T06:49:53.523Z,16.70
2023-05-15T06:50:53.658Z,16.85
2023-05-15T06:51:54.279Z,16.89
2023-05-15T06:52:53.557Z,17.01
2023-05-15T06:53:53.614Z,17.15
2023-05-15T06:54:53.484Z,17.27
2023-05-15T06:55:54.291Z,17.34
2023-05-15T06:56:54.226Z,17.44
2023-05-15T06:57:54.184Z,17.51
2023-05-15T06:58:53.502Z,17.56
2023-05-15T06:59:53.516Z,17.61
2023-05-15T07:00:54.216Z,17.63
2023-05-15T07:01:54.325Z,17.58
2023-05-15T07:02:54.280Z,17.68
2023-05-15T07:03:54.229Z,17.78
2023-05-15T07:04:54.280Z,17.88
2023-05-15T07:05:54.310Z,17.96
2023-05-15T07:06:53.365Z,18.06
2023-05-15T07:07:54.332Z,18.13
2023-05-15T07:08:54.276Z,18.19
2023-05-15T07:09:54.285Z,18.25
2023-05-15T07:10:54.358Z,18.33
2023-05-15T07:11:53.455Z,18.36
2023-05-15T07:12:53.402Z,18.39
2023-05-15T07:13:53.964Z,18.29
2023-05-15T07:14:53.404Z,18.32
2023-05-15T07:15:54.249Z,18.28
2023-05-15T07:16:53.448Z,18.39
2023-05-15T07:17:53.543Z,18.47
2023-05-15T07:18:53.480Z,18.54
2023-05-15T07:19:53.553Z,18.63
2023-05-15T07:20:54.326Z,18.72
2023-05-15T07:21:53.346Z,18.77
2023-05-15T07:22:56.715Z,18.75
2023-05-15T07:23:53.405Z,18.70
2023-05-15T07:24:53.455Z,18.70
2023-05-15T07:25:53.464Z,18.57
2023-05-15T07:26:58.876Z,18.50
2023-05-15T07:27:53.504Z,18.33
2023-05-15T07:28:53.388Z,18.37
2023-05-15T07:29:53.509Z,17.91
2023-05-15T07:30:53.402Z,17.80
2023-05-15T07:31:53.504Z,17.82
2023-05-15T07:32:53.482Z,17.67
2023-05-15T07:33:53.747Z,17.80
2023-05-15T07:34:53.391Z,17.81
2023-05-15T07:35:53.299Z,17.91
2023-05-15T07:36:55.344Z,17.92
2023-05-15T07:37:53.477Z,17.50
2023-05-15T07:38:53.431Z,17.36
2023-05-15T07:39:53.494Z,17.29
2023-05-15T07:40:53.375Z,17.43
2023-05-15T07:41:53.445Z,17.73
2023-05-15T07:42:53.409Z,17.50
2023-05-15T07:43:53.355Z,17.71
2023-05-15T07:44:53.431Z,17.88
2023-05-15T07:45:53.513Z,17.81
2023-05-15T07:46:53.222Z,17.73
2023-05-15T07:47:53.405Z,17.46
2023-05-15T07:48:53.307Z,17.50
2023-05-15T07:49:53.468Z,17.68
2023-05-15T07:50:54.459Z,18.02
2023-05-15T07:51:53.362Z,18.08
2023-05-15T07:52:53.216Z,18.37
2023-05-15T07:53:54.720Z,18.36
2023-05-15T07:54:53.780Z,18.51
2023-05-15T07:55:53.570Z,18.78
2023-05-15T07:56:53.491Z,18.98
2023-05-15T07:57:54.058Z,18.81
2023-05-15T07:58:53.691Z,19.06
2023-05-15T07:59:53.511Z,19.23
2023-05-15T08:00:54.197Z,19.05
2023-05-15T08:01:54.216Z,19.41
2023-05-15T08:02:53.401Z,19.68
2023-05-15T08:03:53.529Z,19.73
2023-05-15T08:04:53.383Z,19.91
2023-05-15T08:05:53.464Z,20.12
2023-05-15T08:06:53.323Z,20.13
2023-05-15T08:07:54.348Z,20.08
2023-05-15T08:08:53.354Z,19.77
2023-05-15T08:09:53.434Z,19.88
2023-05-15T08:10:53.247Z,19.58
2023-05-15T08:11:53.277Z,19.54
2023-05-15T08:12:53.371Z,19.50
2023-05-15T08:13:53.457Z,19.60
2023-05-15T08:14:53.412Z,19.78
2023-05-15T08:15:54.174Z,19.67
2023-05-15T08:16:53.258Z,19.94
2023-05-15T08:17:53.319Z,19.95
2023-05-15T08:18:53.420Z,20.26
2023-05-15T08:19:53.209Z,20.39
2023-05-15T08:20:53.826Z,20.63
2023-05-15T08:21:53.528Z,20.40
2023-05-15T08:22:53.429Z,19.92
2023-05-15T08:23:53.963Z,20.25
2023-05-15T08:24:53.614Z,20.56
2023-05-15T08:25:53.605Z,20.68
2023-05-15T08:26:53.738Z,21.06
2023-05-15T08:27:53.854Z,21.21
2023-05-15T08:28:53.772Z,21.25
2023-05-15T08:29:54.288Z,21.26
2023-05-15T08:30:53.817Z,21.38
2023-05-15T08:31:53.804Z,21.32
2023-05-15T08:32:53.963Z,21.25
2023-05-15T08:33:54.636Z,21.04
2023-05-15T08:34:53.756Z,20.97
2023-05-15T08:35:54.867Z,20.99
2023-05-15T08:36:53.832Z,20.70
2023-05-15T08:37:53.988Z,20.88
2023-05-15T08:38:54.764Z,20.81
2023-05-15T08:39:55.184Z,20.81
2023-05-15T08:40:53.925Z,20.62
2023-05-15T08:41:53.970Z,20.12
2023-05-15T08:42:53.838Z,19.81
2023-05-15T08:43:53.797Z,19.54
2023-05-15T08:44:53.915Z,19.63
2023-05-15T08:45:53.861Z,19.36
2023-05-15T08:46:53.863Z,19.46
2023-05-15T08:47:53.953Z,19.60
2023-05-15T08:48:56.253Z,19.57
2023-05-15T08:49:54.381Z,19.47
2023-05-15T08:50:54.264Z,19.34
2023-05-15T08:51:53.955Z,19.22
2023-05-15T08:52:54.152Z,19.32
2023-05-15T08:53:54.034Z,19.43
2023-05-15T08:54:54.369Z,19.53
2023-05-15T08:55:54.110Z,19.58
2023-05-15T08:56:54.090Z,19.60
2023-05-15T08:57:54.074Z,19.66
2023-05-15T08:58:54.712Z,19.73
2023-05-15T08:59:55.332Z,19.68
2023-05-15T09:00:54.205Z,19.67
2023-05-15T09:01:54.169Z,19.60
2023-05-15T09:02:54.850Z,19.50
2023-05-15T09:03:54.741Z,19.37
2023-05-15T09:04:55.738Z,19.15
2023-05-15T09:05:54.124Z,19.15
2023-05-15T09:06:54.047Z,19.05
2023-05-15T09:07:54.059Z,19.09
2023-05-15T09:08:54.768Z,19.27
2023-05-15T09:09:54.371Z,19.36
2023-05-15T09:10:54.108Z,19.39
2023-05-15T09:11:54.102Z,19.37
2023-05-15T09:12:54.138Z,19.37
2023-05-15T09:13:54.256Z,19.49
2023-05-15T09:14:54.751Z,19.34
2023-05-15T09:15:55.179Z,19.04
2023-05-15T09:16:54.441Z,19.36
2023-05-15T09:17:54.388Z,19.23
2023-05-15T09:18:54.497Z,18.85
2023-05-15T09:19:54.444Z,18.88
2023-05-15T09:20:56.255Z,18.90
2023-05-15T09:21:54.584Z,18.58
2023-05-15T09:22:54.604Z,18.91
2023-05-15T09:23:54.461Z,19.08
2023-05-15T09:24:54.577Z,19.16
2023-05-15T09:25:55.207Z,19.19
2023-05-15T09:26:54.462Z,19.19
2023-05-15T09:27:54.415Z,19.32
2023-05-15T09:28:54.347Z,19.37
2023-05-15T09:29:54.516Z,19.50
2023-05-15T09:30:55.322Z,19.43
2023-05-15T09:31:54.481Z,19.64
2023-05-15T09:32:54.467Z,19.78
2023-05-15T09:33:54.476Z,19.95
2023-05-15T09:34:54.752Z,19.95
2023-05-15T09:35:54.463Z,20.05
2023-05-15T09:36:54.474Z,19.87
2023-05-15T09:37:54.461Z,20.01
2023-05-15T09:38:54.362Z,20.04
2023-05-15T09:39:54.427Z,20.07
2023-05-15T09:40:54.382Z,20.13
2023-05-15T09:41:54.539Z,20.16
2023-05-15T09:42:54.312Z,20.02
2023-05-15T09:43:54.604Z,20.07
2023-05-15T09:44:54.897Z,20.08
2023-05-15T09:45:55.475Z,20.02
2023-05-15T09:46:55.303Z,20.13
2023-05-15T09:47:54.507Z,20.07
2023-05-15T09:48:54.424Z,20.12
2023-05-15T09:49:54.331Z,19.78
2023-05-15T09:50:54.310Z,19.29
2023-05-15T09:51:54.374Z,19.32
2023-05-15T09:52:54.283Z,19.43
2023-05-15T09:53:55.463Z,19.60
2023-05-15T09:54:54.385Z,19.78
2023-05-15T09:55:54.404Z,19.89
2023-05-15T09:56:54.325Z,20.05
2023-05-15T09:57:54.317Z,20.15
2023-05-15T09:58:54.888Z,20.30
2023-05-15T09:59:54.915Z,20.40
2023-05-15T10:00:54.646Z,20.46
2023-05-15T10:01:54.685Z,20.42
2023-05-15T10:02:54.706Z,20.49
2023-05-15T10:03:54.709Z,20.60
2023-05-15T10:04:56.479Z,20.53
2023-05-15T10:05:54.536Z,20.81
2023-05-15T10:06:54.673Z,20.87
2023-05-15T10:07:54.654Z,21.05
2023-05-15T10:08:54.592Z,21.21
2023-05-15T10:09:54.602Z,21.30
2023-05-15T10:10:54.603Z,21.29
2023-05-15T10:11:54.587Z,21.29
2023-05-15T10:12:54.592Z,21.42
2023-05-15T10:13:54.634Z,21.63
2023-05-15T10:14:54.584Z,21.54
2023-05-15T10:15:55.280Z,21.77
2023-05-15T10:16:54.615Z,21.74
2023-05-15T10:17:54.574Z,21.74
2023-05-15T10:18:55.400Z,21.47
2023-05-15T10:19:58.345Z,21.46
2023-05-15T10:20:55.578Z,21.63
2023-05-15T10:21:54.503Z,21.57
2023-05-15T10:22:54.568Z,21.52
2023-05-15T10:23:54.739Z,21.23
2023-05-15T10:24:54.831Z,21.72
2023-05-15T10:25:54.577Z,21.15
2023-05-15T10:26:54.524Z,21.57
2023-05-15T10:27:54.617Z,21.63
2023-05-15T10:28:54.499Z,21.60
2023-05-15T10:29:54.827Z,21.81
2023-05-15T10:30:54.703Z,21.77
2023-05-15T10:31:54.664Z,22.00
2023-05-15T10:32:56.402Z,21.83
2023-05-15T10:33:55.492Z,21.26
2023-05-15T10:34:54.552Z,21.09
2023-05-15T10:35:54.588Z,21.19
2023-05-15T10:36:54.455Z,21.02
2023-05-15T10:37:55.477Z,21.12
2023-05-15T10:38:54.850Z,20.84
2023-05-15T10:39:54.727Z,21.06
2023-05-15T10:41:05.630Z,20.68
2023-05-15T10:41:56.593Z,20.71
2023-05-15T10:42:54.832Z,20.81
2023-05-15T10:43:54.718Z,20.25
2023-05-15T10:44:54.866Z,20.26
2023-05-15T10:45:55.244Z,20.40
2023-05-15T10:46:54.674Z,20.42
2023-05-15T10:47:54.732Z,20.47
2023-05-15T10:48:54.762Z,20.56
2023-05-15T10:49:54.680Z,20.62
2023-05-15T10:50:54.755Z,20.71
2023-05-15T10:51:54.771Z,20.21
2023-05-15T10:52:55.259Z,20.47
2023-05-15T10:53:54.656Z,20.46
2023-05-15T10:54:54.620Z,20.60
2023-05-15T10:55:55.370Z,20.73
2023-05-15T10:56:55.290Z,20.81
2023-05-15T10:57:54.625Z,20.90
2023-05-15T10:58:54.768Z,20.93
2023-05-15T10:59:54.655Z,20.99
2023-05-15T11:00:54.891Z,20.98
2023-05-15T11:01:54.573Z,20.97
2023-05-15T11:02:55.307Z,20.90
2023-05-15T11:04:54.689Z,20.33
2023-05-15T11:05:54.693Z,20.49
2023-05-15T11:06:54.585Z,20.26
2023-05-15T11:07:55.252Z,20.09
2023-05-15T11:08:54.616Z,20.16
2023-05-15T11:09:55.270Z,20.21
2023-05-15T11:10:54.907Z,20.07
2023-05-15T11:11:54.609Z,19.87
2023-05-15T11:12:54.442Z,19.58
2023-05-15T11:13:54.619Z,19.53
2023-05-15T11:14:54.539Z,19.57
2023-05-15T11:15:54.861Z,19.74
2023-05-15T11:16:54.557Z,19.89
2023-05-15T11:17:54.502Z,20.08
2023-05-15T11:18:54.671Z,20.22
2023-05-15T11:19:54.463Z,20.35
2023-05-15T11:20:54.547Z,20.47
2023-05-15T11:21:54.552Z,20.56
2023-05-15T11:22:54.510Z,20.62
2023-05-15T11:23:55.233Z,20.63
2023-05-15T11:24:54.597Z,20.74
2023-05-15T11:25:54.822Z,20.78
2023-05-15T11:26:56.115Z,20.84
2023-05-15T11:27:54.664Z,20.93
2023-05-15T11:28:54.833Z,20.95
2023-05-15T11:29:54.536Z,21.02
2023-05-15T11:30:55.007Z,21.08
2023-05-15T11:31:55.372Z,21.15
2023-05-15T11:32:55.416Z,20.87
2023-05-15T11:33:56.150Z,20.98
2023-05-15T11:34:54.905Z,21.05
2023-05-15T11:35:56.402Z,21.09
2023-05-15T11:36:55.741Z,21.13
2023-05-15T11:37:55.057Z,21.18
2023-05-15T11:38:55.993Z,21.18
2023-05-15T11:39:55.811Z,21.16
2023-05-15T11:40:55.436Z,21.13
2023-05-15T11:41:55.169Z,21.15
2023-05-15T11:42:55.111Z,21.16
2023-05-15T11:43:55.755Z,21.18
2023-05-15T11:44:56.267Z,21.21
2023-05-15T11:45:55.346Z,21.12
2023-05-15T11:46:55.906Z,21.04
2023-05-15T11:47:55.646Z,20.87
2023-05-15T11:48:55.616Z,20.77
2023-05-15T11:49:55.708Z,20.85
2023-05-15T11:50:55.767Z,20.99
2023-05-15T11:51:56.344Z,20.99
2023-05-15T11:52:55.582Z,21.08
2023-05-15T11:53:56.256Z,20.94
2023-05-15T11:54:55.569Z,20.98
2023-05-15T11:55:55.614Z,20.76
2023-05-15T11:56:55.581Z,20.84
2023-05-15T11:57:55.576Z,20.97
2023-05-15T11:58:55.558Z,20.95
2023-05-15T11:59:55.748Z,20.51
2023-05-15T12:00:56.258Z,20.44
2023-05-15T12:01:55.564Z,20.53
2023-05-15T12:02:56.273Z,20.67
2023-05-15T12:03:55.833Z,20.78
2023-05-15T12:04:56.346Z,20.85
2023-05-15T12:05:59.045Z,20.87
2023-05-15T12:06:55.601Z,20.80
2023-05-15T12:07:55.565Z,20.87
2023-05-15T12:08:55.439Z,20.98
2023-05-15T12:09:55.527Z,20.94
2023-05-15T12:10:55.514Z,20.97
2023-05-15T12:11:55.506Z,21.04
2023-05-15T12:12:55.486Z,21.16
2023-05-15T12:13:55.521Z,21.35
2023-05-15T12:14:55.447Z,21.54
2023-05-15T12:15:55.468Z,21.63
2023-05-15T12:16:56.321Z,21.98
2023-05-15T12:17:56.255Z,21.80
2023-05-15T12:18:55.524Z,21.87
2023-05-15T12:19:55.359Z,21.83
2023-05-15T12:20:55.400Z,22.15
2023-05-15T12:21:55.518Z,22.39
2023-05-15T12:22:55.356Z,22.40
2023-05-15T12:24:07.173Z,22.47
2023-05-15T12:24:56.320Z,22.27
2023-05-15T12:25:55.427Z,22.50
2023-05-15T12:26:57.492Z,22.63
2023-05-15T12:27:55.273Z,22.70
2023-05-15T12:28:56.228Z,22.83
2023-05-15T12:29:55.373Z,22.52
2023-05-15T12:30:55.386Z,22.55
2023-05-15T12:31:55.478Z,22.67
2023-05-15T12:32:55.323Z,22.57
2023-05-15T12:33:55.319Z,22.35
2023-05-15T12:34:55.242Z,22.50
2023-05-15T12:35:56.758Z,22.55
2023-05-15T12:36:55.540Z,22.39
2023-05-15T12:37:55.205Z,22.39
2023-05-15T12:38:55.202Z,22.56
2023-05-15T12:39:55.328Z,22.55
2023-05-15T12:40:55.732Z,22.36
2023-05-15T12:41:55.290Z,22.16
2023-05-15T12:42:55.723Z,22.47
2023-05-15T12:43:55.247Z,22.62
2023-05-15T12:44:55.298Z,22.38
2023-05-15T12:45:56.191Z,22.56
2023-05-15T12:46:55.335Z,22.73
2023-05-15T12:47:55.356Z,22.82
2023-05-15T12:48:55.839Z,22.70
2023-05-15T12:49:55.334Z,22.80
2023-05-15T12:50:55.788Z,22.89
2023-05-15T12:51:55.280Z,22.95
2023-05-15T12:52:55.219Z,22.76
2023-05-15T12:53:55.393Z,22.73
2023-05-15T12:54:55.176Z,22.83
2023-05-15T12:55:55.864Z,22.91
2023-05-15T12:56:56.985Z,22.98
2023-05-15T12:57:55.256Z,22.94